Ethlyn, Missouri
Current Conditions -  °F | °C
As of 2:54 PM on Sunday 23 Nov 2014 (Local Time) from KSET Reporting Station
Light Rain Light Rain  
Wind Chill: 54°   Ceiling: 800
Heat Index: 54°   Visibility: 4mi
Dew Point: 53°   Wind: 8mph
Humidity: 97%   Direction: 130°SE
Pressure: 29.37"   Gusts: NA
Location:  38.9362°N, 90.7728°W
Report Text: KSET 232054Z AUTO 13007KT 4SM -RA BR OVC008 12/12 A2937 RMK AO2 SLP945 P0008 60034 T01220117 56044
Loading
Personal Weather Stations






























Interactive Weather Map New forecast layout! Learn more

10-Day Weather Forecast

Advertisements
Track Severe Weather on mobile